createdAt,value
2022-11-25T00:00:26.848Z,100373.03
2022-11-25T00:05:28.409Z,100373.06
2022-11-25T00:10:30.586Z,100368.75
2022-11-25T00:15:31.530Z,100366.22
2022-11-25T00:20:32.333Z,100368.78
2022-11-25T00:25:34.458Z,100370.50
2022-11-25T00:30:35.231Z,100370.50
2022-11-25T00:35:36.209Z,100374.03
2022-11-25T00:40:38.341Z,100371.41
2022-11-25T00:45:39.181Z,100367.16
2022-11-25T00:50:40.159Z,100380.91
2022-11-25T00:55:56.239Z,100368.03
2022-11-25T01:01:02.388Z,100378.34
2022-11-25T01:06:04.123Z,100369.75
2022-11-25T01:11:08.854Z,100378.34
2022-11-25T01:16:12.700Z,100380.84
2022-11-25T01:21:15.335Z,100366.97
2022-11-25T01:26:19.792Z,100384.94
2022-11-25T01:31:22.631Z,100374.56
2022-11-25T01:36:23.844Z,100376.28
2022-11-25T01:41:28.382Z,100377.09
2022-11-25T01:46:36.959Z,100370.16
2022-11-25T01:51:42.734Z,100381.38
2022-11-25T01:56:50.988Z,100371.13
2022-11-25T02:01:52.112Z,100372.00
2022-11-25T02:07:00.746Z,100375.47
2022-11-25T02:12:04.101Z,100383.28
2022-11-25T02:17:05.202Z,100378.06
2022-11-25T02:22:12.825Z,100371.22
2022-11-25T02:27:15.498Z,100377.31
2022-11-25T02:32:16.820Z,100370.44
2022-11-25T02:37:19.804Z,100369.56
2022-11-25T02:42:23.691Z,100361.81
2022-11-25T02:47:24.498Z,100370.44
2022-11-25T02:52:25.345Z,100367.88
2022-11-25T02:57:27.644Z,100364.41
2022-11-25T03:02:28.432Z,100370.47
2022-11-25T03:07:29.955Z,100368.75
2022-11-25T03:12:34.934Z,100370.47
2022-11-25T03:17:35.749Z,100371.31
2022-11-25T03:22:36.600Z,100373.91
2022-11-25T03:27:41.072Z,100374.78
2022-11-25T03:32:42.729Z,100374.72
2022-11-25T03:37:45.870Z,100381.63
2022-11-25T03:42:48.303Z,100385.09
2022-11-25T03:47:50.370Z,100385.97
2022-11-25T03:52:51.695Z,100383.38
2022-11-25T03:57:55.278Z,100386.84
2022-11-25T04:02:57.812Z,100392.03
2022-11-25T04:07:58.743Z,100399.78
2022-11-25T04:13:01.962Z,100393.69
2022-11-25T04:18:09.604Z,100398.00
2022-11-25T04:23:11.012Z,100395.47
2022-11-25T04:28:19.368Z,100396.28
2022-11-25T04:33:20.311Z,100405.75
2022-11-25T04:38:22.247Z,100416.94
2022-11-25T04:43:25.180Z,100406.59
2022-11-25T04:48:35.028Z,100404.94
2022-11-25T04:53:36.357Z,100412.72
2022-11-25T04:58:56.296Z,100409.28
2022-11-25T05:03:57.793Z,100409.22
2022-11-25T05:09:00.546Z,100408.31
2022-11-25T05:14:04.162Z,100410.00
2022-11-25T05:19:05.654Z,100402.25
2022-11-25T05:24:06.860Z,100396.44
2022-11-25T05:29:11.450Z,100397.22
2022-11-25T05:34:12.350Z,100394.41
2022-11-25T05:39:13.815Z,100397.66
2022-11-25T05:44:38.672Z,100403.56
2022-11-25T05:49:39.712Z,100406.09
2022-11-25T05:54:41.254Z,100404.25
2022-11-25T05:59:44.291Z,100417.38
2022-11-25T06:04:52.771Z,100409.47
2022-11-25T06:09:53.610Z,100412.69
2022-11-25T06:14:56.018Z,100414.22
2022-11-25T06:19:56.936Z,100415.94
2022-11-25T06:25:03.387Z,100423.56
2022-11-25T06:30:09.291Z,100436.44
2022-11-25T06:35:11.645Z,100439.75
2022-11-25T06:40:20.853Z,100450.97
2022-11-25T06:45:23.023Z,100457.88
2022-11-25T06:50:24.338Z,100460.25
2022-11-25T06:55:25.139Z,100467.16
2022-11-25T07:00:27.579Z,100459.41
2022-11-25T07:05:28.437Z,100468.84
2022-11-25T07:10:29.344Z,100482.56
2022-11-25T07:15:31.536Z,100484.28
2022-11-25T07:20:32.807Z,100487.63
2022-11-25T07:25:34.283Z,100495.47
2022-11-25T07:35:57.213Z,100509.31
2022-11-25T07:40:58.125Z,100497.28
2022-11-25T07:46:10.020Z,100501.69
2022-11-25T07:51:18.735Z,100506.94
2022-11-25T07:56:21.135Z,100500.16
2022-11-25T08:01:23.574Z,100496.88
2022-11-25T08:06:26.583Z,100501.25
2022-11-25T08:11:29.889Z,100499.59
2022-11-25T08:16:33.018Z,100512.41
2022-11-25T08:21:34.512Z,100506.28
2022-11-25T08:26:37.764Z,100506.38
2022-11-25T08:31:39.991Z,100507.31
2022-11-25T08:36:46.564Z,100503.13
2022-11-25T08:41:54.228Z,100504.06
2022-11-25T08:46:57.369Z,100504.84
2022-11-25T08:51:58.464Z,100498.09
2022-11-25T08:57:00.713Z,100511.91
2022-11-25T09:02:03.294Z,100509.31
2022-11-25T09:07:05.585Z,100505.03
2022-11-25T09:12:06.678Z,100505.97
2022-11-25T09:17:12.114Z,100511.16
2022-11-25T09:22:12.935Z,100512.84
2022-11-25T09:27:13.754Z,100500.88
2022-11-25T09:32:15.972Z,100502.63
2022-11-25T09:37:16.821Z,100505.28
2022-11-25T09:42:49.464Z,100507.94
2022-11-25T09:48:01.661Z,100508.97
2022-11-25T09:53:10.727Z,100495.28
2022-11-25T09:58:22.627Z,100507.44
2022-11-25T10:03:35.730Z,100508.41
2022-11-25T10:08:40.460Z,100510.19
2022-11-25T10:13:47.935Z,100493.94
2022-11-25T10:19:02.091Z,100499.13
2022-11-25T10:24:05.003Z,100498.34
2022-11-25T10:29:23.000Z,100494.91
2022-11-25T10:34:37.283Z,100491.53
2022-11-25T10:39:38.301Z,100483.78
2022-11-25T10:44:41.111Z,100484.66
2022-11-25T10:49:52.016Z,100480.34
2022-11-25T10:55:08.790Z,100479.50
2022-11-25T11:00:26.588Z,100481.19
2022-11-25T11:05:30.322Z,100479.44
2022-11-25T11:10:31.154Z,100475.97
2022-11-25T11:15:33.767Z,100471.59
2022-11-25T11:20:36.185Z,100463.75
2022-11-25T11:25:38.534Z,100450.69
2022-11-25T11:30:56.547Z,100450.59
2022-11-25T11:36:12.554Z,100448.78
2022-11-25T11:41:23.663Z,100443.47
2022-11-25T11:46:34.162Z,100443.31
2022-11-25T11:51:45.381Z,100436.41
2022-11-25T11:56:55.016Z,100440.69
2022-11-25T12:02:13.962Z,100437.97
2022-11-25T12:07:22.304Z,100434.50
2022-11-25T12:12:35.061Z,100441.47
2022-11-25T12:17:45.082Z,100437.09
2022-11-25T12:22:54.908Z,100433.47
2022-11-25T12:28:01.623Z,100427.22
2022-11-25T12:33:11.636Z,100418.44
2022-11-25T12:38:29.381Z,100420.09
2022-11-25T12:43:39.981Z,100418.47
2022-11-25T12:48:43.715Z,100425.38
2022-11-25T12:53:53.105Z,100417.47
2022-11-25T12:59:07.708Z,100420.31
2022-11-25T13:04:32.589Z,100420.13
2022-11-25T13:09:55.680Z,100422.69
2022-11-25T13:15:21.487Z,100428.78
2022-11-25T13:20:46.046Z,100436.50
2022-11-25T13:25:49.828Z,100444.16
2022-11-25T13:30:51.887Z,100435.59
2022-11-25T13:35:54.223Z,100449.34
2022-11-25T13:46:36.126Z,100454.97
2022-11-25T13:51:37.947Z,100458.88
2022-11-25T13:56:39.027Z,100450.31
2022-11-25T14:01:42.494Z,100459.16
2022-11-25T14:07:06.590Z,100469.63
2022-11-25T14:12:38.750Z,100467.09
2022-11-25T14:18:04.819Z,100481.88
2022-11-25T14:23:37.353Z,100482.78
2022-11-25T14:28:45.239Z,100481.09
2022-11-25T14:33:54.660Z,100501.88
2022-11-25T14:38:59.787Z,100505.09
2022-11-25T14:44:05.848Z,100508.47
2022-11-25T14:49:30.692Z,100520.66
2022-11-25T14:54:29.835Z,100536.41
2022-11-25T14:59:30.715Z,100539.88
2022-11-25T15:04:34.633Z,100547.66
2022-11-25T15:09:43.135Z,100544.22
2022-11-25T15:14:49.703Z,100532.13
2022-11-25T15:19:53.016Z,100542.41
2022-11-25T15:24:56.483Z,100547.50
2022-11-25T15:29:58.993Z,100552.66
2022-11-25T15:35:03.238Z,100559.50
2022-11-25T15:40:30.940Z,100570.72
2022-11-25T15:45:38.225Z,100577.63
2022-11-25T15:50:41.500Z,100584.53
2022-11-25T15:55:42.339Z,100577.63
2022-11-25T16:00:43.213Z,100587.09
2022-11-25T16:05:56.880Z,100592.25
2022-11-25T16:11:00.403Z,100581.06
2022-11-25T16:16:09.413Z,100591.41
2022-11-25T16:21:14.675Z,100599.97
2022-11-25T16:26:19.576Z,100613.78
2022-11-25T16:31:20.474Z,100619.88
2022-11-25T16:36:23.002Z,100625.03
2022-11-25T16:41:26.921Z,100624.16
2022-11-25T16:46:28.476Z,100621.53
2022-11-25T16:51:30.752Z,100626.66
2022-11-25T16:56:31.812Z,100631.81
2022-11-25T17:01:35.305Z,100624.00
2022-11-25T17:06:37.866Z,100627.47
2022-11-25T17:11:46.715Z,100617.13
2022-11-25T17:16:47.860Z,100628.31
2022-11-25T17:21:50.069Z,100625.75
2022-11-25T17:26:54.501Z,100635.16
2022-11-25T17:31:58.636Z,100641.28
2022-11-25T17:37:01.101Z,100652.50
2022-11-25T17:42:02.654Z,100661.81
2022-11-25T17:47:03.556Z,100656.75
2022-11-25T17:52:06.502Z,100661.84
2022-11-25T17:57:11.073Z,100665.31
2022-11-25T18:02:18.623Z,100668.69
2022-11-25T18:07:20.939Z,100674.78
2022-11-25T18:12:28.056Z,100679.09
2022-11-25T18:17:28.872Z,100678.28
2022-11-25T18:22:31.434Z,100682.53
2022-11-25T18:27:32.391Z,100685.97
2022-11-25T18:32:33.204Z,100690.41
2022-11-25T18:37:35.437Z,100693.78
2022-11-25T18:42:36.241Z,100702.47
2022-11-25T18:47:37.055Z,100703.38
2022-11-25T18:52:39.188Z,100722.28
2022-11-25T18:57:40.828Z,100723.22
2022-11-25T19:02:41.819Z,100731.81
2022-11-25T19:07:44.112Z,100734.13
2022-11-25T19:12:48.227Z,100742.56
2022-11-25T19:17:53.083Z,100739.69
2022-11-25T19:23:00.290Z,100742.16
2022-11-25T19:28:02.354Z,100745.56
2022-11-25T19:33:03.735Z,100752.44
2022-11-25T19:38:14.637Z,100748.94
2022-11-25T19:43:15.548Z,100769.63
2022-11-25T19:48:19.285Z,100776.50
2022-11-25T19:53:22.976Z,100782.47
2022-11-25T19:58:24.000Z,100785.06
2022-11-25T20:03:27.999Z,100801.44
2022-11-25T20:08:30.204Z,100800.53
2022-11-25T20:13:31.136Z,100806.59
2022-11-25T20:18:32.029Z,100808.28
2022-11-25T20:23:43.378Z,100826.47
2022-11-25T20:28:44.733Z,100829.06
2022-11-25T20:33:45.644Z,100835.09
2022-11-25T20:38:52.789Z,100848.16
2022-11-25T20:43:54.248Z,100845.50
2022-11-25T20:48:57.676Z,100856.69
2022-11-25T20:54:01.985Z,100855.84
2022-11-25T20:59:02.856Z,100855.03
2022-11-25T21:04:03.703Z,100862.72
2022-11-25T21:09:05.916Z,100872.28
2022-11-25T21:14:13.133Z,100872.31
2022-11-25T21:19:14.975Z,100881.72
2022-11-25T21:24:31.115Z,100887.81
2022-11-25T21:29:32.500Z,100890.47
2022-11-25T21:34:33.344Z,100899.94
2022-11-25T21:39:35.526Z,100904.25
2022-11-25T21:44:40.649Z,100914.63
2022-11-25T21:49:41.587Z,100913.75
2022-11-25T21:54:44.378Z,100924.16
2022-11-25T21:59:46.819Z,100927.63
2022-11-25T22:04:50.761Z,100931.94
2022-11-25T22:09:52.967Z,100932.88
2022-11-25T22:14:54.367Z,100935.47
2022-11-25T22:19:55.454Z,100942.47
2022-11-25T22:24:57.578Z,100943.34
2022-11-25T22:29:58.492Z,100946.78
2022-11-25T22:34:59.294Z,100949.47
2022-11-25T22:40:01.464Z,100960.78
2022-11-25T22:45:05.288Z,100966.00
2022-11-25T22:50:14.000Z,100965.19
2022-11-25T22:55:20.343Z,100966.91
2022-11-25T23:00:27.082Z,100975.63
2022-11-25T23:05:33.043Z,100977.34
2022-11-25T23:10:35.541Z,100974.03
2022-11-25T23:15:36.817Z,100989.53
2022-11-25T23:20:39.271Z,100991.28
2022-11-25T23:25:41.534Z,100982.66
2022-11-25T23:30:47.936Z,100984.47
2022-11-25T23:35:48.866Z,100994.81
2022-11-25T23:40:51.085Z,100983.63
2022-11-25T23:45:54.555Z,100992.31
2022-11-25T23:50:58.456Z,101003.56
2022-11-25T23:56:00.732Z,100997.56
